createdAt,value
2018-03-20T00:00:26.973Z,61.15
2018-03-20T00:01:26.940Z,60.96
2018-03-20T00:02:26.927Z,61.24
2018-03-20T00:03:26.902Z,61.71
2018-03-20T00:04:26.859Z,61.80
2018-03-20T00:05:26.837Z,61.52
2018-03-20T00:06:26.826Z,61.71
2018-03-20T00:07:26.776Z,61.80
2018-03-20T00:08:26.758Z,61.90
2018-03-20T00:09:26.734Z,61.80
2018-03-20T00:10:26.696Z,62.28
2018-03-20T00:11:26.672Z,62.18
2018-03-20T00:12:26.641Z,62.09
2018-03-20T00:13:26.630Z,62.47
2018-03-20T00:14:26.586Z,62.56
2018-03-20T00:15:26.572Z,62.09
2018-03-20T00:16:26.567Z,62.28
2018-03-20T00:17:26.506Z,61.90
2018-03-20T00:18:26.475Z,62.09
2018-03-20T00:19:26.468Z,61.80
2018-03-20T00:20:26.432Z,62.09
2018-03-20T00:21:26.399Z,61.90
2018-03-20T00:22:26.377Z,61.80
2018-03-20T00:23:26.340Z,62.28
2018-03-20T00:24:26.317Z,61.99
2018-03-20T00:25:26.302Z,62.28
2018-03-20T00:26:26.261Z,62.18
2018-03-20T00:27:26.242Z,62.09
2018-03-20T00:28:26.205Z,62.37
2018-03-20T00:29:26.184Z,61.71
2018-03-20T00:30:26.149Z,61.80
2018-03-20T00:31:26.123Z,62.37
2018-03-20T00:32:26.097Z,61.61
2018-03-20T00:33:26.069Z,61.71
2018-03-20T00:34:26.041Z,61.90
2018-03-20T00:35:26.053Z,61.52
2018-03-20T00:36:25.989Z,61.52
2018-03-20T00:37:25.968Z,61.33
2018-03-20T00:38:25.934Z,61.33
2018-03-20T00:39:25.922Z,61.43
2018-03-20T00:40:25.887Z,61.61
2018-03-20T00:41:25.864Z,60.86
2018-03-20T00:42:25.827Z,61.15
2018-03-20T00:43:25.798Z,61.61
2018-03-20T00:44:25.772Z,61.90
2018-03-20T00:45:25.746Z,61.80
2018-03-20T00:46:25.716Z,61.99
2018-03-20T00:47:25.695Z,61.43
2018-03-20T00:48:25.664Z,60.86
2018-03-20T00:49:25.637Z,61.05
2018-03-20T00:50:25.606Z,61.33
2018-03-20T00:51:25.581Z,60.86
2018-03-20T00:52:25.554Z,60.96
2018-03-20T00:53:25.530Z,60.96
2018-03-20T00:54:25.501Z,60.67
2018-03-20T00:55:25.473Z,60.67
2018-03-20T00:58:10.339Z,60.77
2018-03-20T00:59:10.313Z,60.77
2018-03-20T01:00:10.296Z,60.33
2018-03-20T01:01:10.263Z,60.49
2018-03-20T01:02:10.235Z,60.80
2018-03-20T01:03:10.213Z,60.52
2018-03-20T01:04:10.179Z,60.23
2018-03-20T01:05:10.278Z,60.61
2018-03-20T01:06:10.127Z,60.14
2018-03-20T01:07:10.114Z,60.33
2018-03-20T01:08:10.079Z,60.23
2018-03-20T01:09:10.050Z,59.85
2018-03-20T01:10:10.022Z,59.85
2018-03-20T01:11:10.007Z,59.95
2018-03-20T01:12:09.969Z,60.33
2018-03-20T01:13:09.940Z,60.30
2018-03-20T01:14:09.913Z,60.52
2018-03-20T01:15:09.940Z,60.52
2018-03-20T01:16:09.864Z,60.70
2018-03-20T01:17:09.838Z,61.08
2018-03-20T01:18:09.816Z,61.08
2018-03-20T01:19:09.782Z,61.36
2018-03-20T01:20:09.757Z,61.18
2018-03-20T01:21:09.734Z,61.18
2018-03-20T01:22:09.708Z,61.55
2018-03-20T01:23:09.685Z,61.74
2018-03-20T01:24:09.662Z,61.55
2018-03-20T01:25:09.629Z,61.46
2018-03-20T01:26:09.599Z,61.74
2018-03-20T01:27:09.577Z,61.46
2018-03-20T01:28:09.546Z,61.55
2018-03-20T01:29:09.525Z,61.55
2018-03-20T01:30:09.502Z,61.83
2018-03-20T01:31:09.470Z,61.55
2018-03-20T01:32:09.459Z,62.02
2018-03-20T01:33:09.427Z,62.59
2018-03-20T01:34:09.412Z,62.50
2018-03-20T01:35:09.370Z,62.02
2018-03-20T01:36:09.337Z,61.36
2018-03-20T01:37:09.321Z,61.74
2018-03-20T01:38:09.287Z,61.74
2018-03-20T01:39:09.265Z,61.74
2018-03-20T01:40:09.238Z,61.55
2018-03-20T01:41:09.207Z,61.74
2018-03-20T01:42:09.184Z,61.65
2018-03-20T01:43:09.161Z,61.65
2018-03-20T01:44:09.127Z,61.65
2018-03-20T01:45:09.102Z,62.50
2018-03-20T01:46:09.076Z,62.69
2018-03-20T01:47:09.054Z,63.26
2018-03-20T01:48:09.024Z,63.26
2018-03-20T01:49:08.999Z,63.54
2018-03-20T01:50:08.975Z,64.11
2018-03-20T01:51:08.948Z,63.64
2018-03-20T01:52:08.927Z,64.58
2018-03-20T01:53:08.894Z,64.58
2018-03-20T01:54:08.874Z,64.86
2018-03-20T01:55:08.843Z,64.86
2018-03-20T01:56:08.825Z,65.72
2018-03-20T01:57:08.793Z,66.00
2018-03-20T01:58:08.766Z,65.91
2018-03-20T01:59:08.743Z,66.19
2018-03-20T02:00:08.713Z,66.00
2018-03-20T02:01:08.700Z,66.28
2018-03-20T02:02:08.670Z,66.38
2018-03-20T02:03:08.737Z,66.85
2018-03-20T02:04:08.611Z,66.75
2018-03-20T02:05:08.585Z,66.85
2018-03-20T02:06:08.565Z,66.66
2018-03-20T02:07:08.534Z,66.85
2018-03-20T02:08:08.506Z,66.75
2018-03-20T02:09:08.481Z,67.13
2018-03-20T02:10:08.475Z,66.94
2018-03-20T02:11:08.432Z,67.13
2018-03-20T02:12:08.404Z,67.32
2018-03-20T02:13:08.382Z,67.70
2018-03-20T02:14:08.359Z,67.41
2018-03-20T02:15:08.342Z,67.32
2018-03-20T02:16:08.305Z,67.89
2018-03-20T02:17:08.276Z,68.17
2018-03-20T02:18:08.250Z,68.46
2018-03-20T02:19:08.228Z,68.84
2018-03-20T02:20:08.199Z,69.02
2018-03-20T02:21:08.172Z,69.21
2018-03-20T02:22:08.159Z,70.16
2018-03-20T02:23:08.123Z,70.16
2018-03-20T02:24:08.102Z,70.73
2018-03-20T02:25:08.072Z,71.30
2018-03-20T02:26:08.044Z,71.86
2018-03-20T02:27:08.022Z,71.77
2018-03-20T02:28:08.005Z,72.05
2018-03-20T02:29:07.968Z,71.95
2018-03-20T02:30:07.944Z,72.14
2018-03-20T02:31:07.921Z,72.14
2018-03-20T02:32:07.941Z,72.52
2018-03-20T02:33:07.864Z,72.99
2018-03-20T02:34:07.839Z,72.52
2018-03-20T02:35:07.854Z,72.80
2018-03-20T02:36:07.789Z,72.90
2018-03-20T02:37:07.760Z,73.60
2018-03-20T02:38:07.738Z,73.28
2018-03-20T02:39:07.716Z,73.56
2018-03-20T02:40:07.683Z,73.85
2018-03-20T02:41:07.659Z,74.22
2018-03-20T02:42:07.779Z,74.04
2018-03-20T02:43:07.607Z,74.36
2018-03-20T02:44:07.588Z,74.45
2018-03-20T02:45:07.553Z,74.45
2018-03-20T02:46:07.531Z,74.36
2018-03-20T02:47:07.501Z,75.02
2018-03-20T02:48:07.476Z,76.06
2018-03-20T02:49:07.450Z,77.48
2018-03-20T02:50:07.425Z,79.14
2018-03-20T02:51:07.442Z,80.18
2018-03-20T02:52:07.371Z,81.70
2018-03-20T02:53:07.350Z,82.17
2018-03-20T02:54:07.321Z,82.35
2018-03-20T02:55:07.412Z,82.64
2018-03-20T02:56:07.277Z,82.92
2018-03-20T02:57:07.241Z,83.49
2018-03-20T02:58:07.282Z,83.59
2018-03-20T02:59:07.191Z,84.34
2018-03-20T03:00:07.170Z,85.19
2018-03-20T03:01:07.149Z,86.14
2018-03-20T03:02:07.116Z,86.42
2018-03-20T03:03:07.092Z,87.27
2018-03-20T03:04:07.060Z,88.03
2018-03-20T03:05:07.036Z,89.26
2018-03-20T03:06:07.010Z,89.92
2018-03-20T03:07:06.985Z,90.86
2018-03-20T03:08:06.958Z,91.62
2018-03-20T03:09:06.931Z,92.38
2018-03-20T03:10:06.907Z,93.70
2018-03-20T03:11:06.892Z,93.51
2018-03-20T03:12:06.858Z,94.65
2018-03-20T03:13:06.834Z,95.12
2018-03-20T03:14:06.812Z,95.50
2018-03-20T03:15:06.777Z,96.83
2018-03-20T03:16:06.751Z,97.39
2018-03-20T03:17:06.750Z,98.14
2018-03-20T03:18:06.698Z,97.77
2018-03-20T03:19:06.670Z,98.33
2018-03-20T03:20:06.653Z,98.52
2018-03-20T03:21:06.618Z,99.09
2018-03-20T03:22:06.591Z,99.99
2018-03-20T03:23:06.567Z,99.76
2018-03-20T03:24:06.564Z,99.99
2018-03-20T03:25:06.514Z,99.99
2018-03-20T03:26:06.486Z,99.99
2018-03-20T03:27:06.537Z,99.99
2018-03-20T03:28:06.436Z,99.99
2018-03-20T03:29:06.410Z,99.99
2018-03-20T03:30:06.388Z,99.99
2018-03-20T03:31:06.355Z,99.99
2018-03-20T03:32:06.330Z,99.99
2018-03-20T03:33:06.305Z,99.99
2018-03-20T03:34:06.278Z,99.99
2018-03-20T03:35:06.253Z,99.99
2018-03-20T03:36:06.225Z,99.99
2018-03-20T03:37:06.262Z,99.99
2018-03-20T03:38:06.176Z,99.99
2018-03-20T03:39:06.153Z,99.99
2018-03-20T03:40:06.121Z,99.99
2018-03-20T03:41:06.095Z,99.99
2018-03-20T03:42:06.069Z,99.99
2018-03-20T03:43:06.045Z,99.99
2018-03-20T03:44:06.031Z,99.99
2018-03-20T03:45:05.995Z,99.99
2018-03-20T03:46:05.965Z,99.99
2018-03-20T03:47:05.978Z,99.99
2018-03-20T03:48:05.914Z,99.99
2018-03-20T03:49:05.887Z,99.99
2018-03-20T03:50:05.862Z,99.99
2018-03-20T03:51:05.839Z,99.99
2018-03-20T03:52:05.810Z,99.99
2018-03-20T03:53:05.784Z,99.99
2018-03-20T03:54:05.759Z,99.99
2018-03-20T03:55:05.730Z,99.99
2018-03-20T03:56:05.709Z,99.99
2018-03-20T03:57:05.731Z,99.99
2018-03-20T03:58:05.658Z,99.99
2018-03-20T03:59:05.633Z,99.99
2018-03-20T04:00:05.606Z,99.99
2018-03-20T04:01:05.578Z,99.99
2018-03-20T04:02:05.550Z,99.99
2018-03-20T04:03:05.531Z,99.99
2018-03-20T04:04:05.501Z,99.99
2018-03-20T04:05:05.478Z,99.99
2018-03-20T04:06:05.452Z,99.99
2018-03-20T04:07:05.623Z,99.99
2018-03-20T04:08:05.396Z,99.99
2018-03-20T04:09:05.371Z,99.99
2018-03-20T04:10:05.346Z,99.99
2018-03-20T04:11:05.322Z,99.99
2018-03-20T04:12:05.329Z,99.99
2018-03-20T04:13:05.267Z,99.99
2018-03-20T04:14:05.258Z,99.99
2018-03-20T04:15:05.232Z,99.99
2018-03-20T04:16:05.195Z,99.99
2018-03-20T04:17:05.173Z,99.99
2018-03-20T04:18:05.141Z,99.99
2018-03-20T04:19:05.114Z,99.99
2018-03-20T04:20:05.091Z,99.99
2018-03-20T04:21:05.065Z,99.99
2018-03-20T04:22:05.039Z,99.99
2018-03-20T04:23:05.039Z,99.99
2018-03-20T04:24:04.988Z,99.99
2018-03-20T04:25:04.964Z,99.99
2018-03-20T04:26:04.937Z,99.99
2018-03-20T04:27:04.914Z,99.99
2018-03-20T04:28:04.942Z,99.99
2018-03-20T04:29:04.864Z,99.99
2018-03-20T04:30:04.836Z,99.99
2018-03-20T04:31:04.813Z,99.99
2018-03-20T04:32:04.786Z,99.99
2018-03-20T04:33:04.760Z,99.99
2018-03-20T04:34:04.735Z,99.99
2018-03-20T04:35:04.707Z,99.99
2018-03-20T04:36:04.698Z,99.99
2018-03-20T04:37:04.656Z,99.99
2018-03-20T04:38:04.636Z,99.99
2018-03-20T04:39:04.670Z,99.99
2018-03-20T04:40:04.590Z,99.99
2018-03-20T04:41:04.558Z,99.99
2018-03-20T04:42:04.533Z,99.99
2018-03-20T04:43:04.507Z,99.99
2018-03-20T04:44:04.482Z,99.99
2018-03-20T04:45:04.458Z,99.99
2018-03-20T04:46:04.431Z,99.99
2018-03-20T04:47:04.405Z,99.99
2018-03-20T04:48:04.381Z,99.99
2018-03-20T04:49:04.354Z,99.99
2018-03-20T04:50:04.331Z,99.99
2018-03-20T04:51:04.308Z,99.99
2018-03-20T04:52:04.281Z,99.99
2018-03-20T04:53:04.255Z,99.99
2018-03-20T04:54:04.346Z,99.99
2018-03-20T04:55:04.215Z,99.99
2018-03-20T04:56:04.174Z,99.99
2018-03-20T04:57:04.149Z,99.99
2018-03-20T04:58:04.125Z,99.99
2018-03-20T04:59:04.101Z,99.99
2018-03-20T05:00:04.075Z,99.99
2018-03-20T05:01:04.050Z,99.99
2018-03-20T05:02:04.153Z,99.99
2018-03-20T05:03:03.999Z,99.99
2018-03-20T05:04:03.977Z,99.99
2018-03-20T05:05:04.056Z,99.99
2018-03-20T05:06:03.921Z,99.99
2018-03-20T05:07:03.899Z,99.99
2018-03-20T05:08:03.872Z,99.99
2018-03-20T05:09:03.849Z,99.99
2018-03-20T05:10:03.824Z,99.99
2018-03-20T05:11:03.798Z,99.99
2018-03-20T05:12:03.774Z,99.99
2018-03-20T05:13:03.745Z,99.99
2018-03-20T05:14:03.718Z,99.99
2018-03-20T05:15:03.698Z,99.99
2018-03-20T05:16:03.667Z,99.99
2018-03-20T05:17:03.648Z,99.99
2018-03-20T05:18:03.620Z,99.99
2018-03-20T05:19:03.593Z,99.99
2018-03-20T05:20:03.568Z,99.99
2018-03-20T05:21:03.540Z,99.99
2018-03-20T05:22:03.518Z,99.99
2018-03-20T05:23:03.492Z,99.99
2018-03-20T05:24:03.570Z,99.99
2018-03-20T05:25:03.443Z,99.99
2018-03-20T05:26:03.413Z,99.99
2018-03-20T05:27:03.389Z,99.99
2018-03-20T05:28:03.367Z,99.99
2018-03-20T05:29:03.336Z,99.99
2018-03-20T05:30:03.314Z,99.99
2018-03-20T05:31:03.291Z,99.99
2018-03-20T05:32:03.266Z,99.99
2018-03-20T05:33:03.236Z,99.99
2018-03-20T05:34:03.210Z,99.99
2018-03-20T05:35:03.192Z,99.99
2018-03-20T05:36:03.160Z,99.99
2018-03-20T05:37:03.140Z,99.99
2018-03-20T05:38:03.107Z,99.99
2018-03-20T05:39:03.085Z,99.99
2018-03-20T05:40:03.060Z,99.99
2018-03-20T05:41:03.035Z,99.99
2018-03-20T05:42:03.008Z,99.99
2018-03-20T05:43:02.984Z,99.99
2018-03-20T05:44:02.969Z,99.99
2018-03-20T05:45:02.939Z,99.99
2018-03-20T05:46:03.020Z,99.99
2018-03-20T05:47:02.884Z,99.99
2018-03-20T05:48:02.860Z,99.99
2018-03-20T05:49:02.841Z,99.99
2018-03-20T05:50:02.809Z,99.99
2018-03-20T05:51:02.783Z,99.99
2018-03-20T05:52:02.758Z,99.99
2018-03-20T05:53:02.732Z,99.99
2018-03-20T05:54:02.705Z,99.99
2018-03-20T05:55:02.688Z,99.99
2018-03-20T05:56:02.655Z,99.99
2018-03-20T05:57:02.637Z,99.99
2018-03-20T05:58:02.610Z,99.99
2018-03-20T05:59:02.606Z,99.99
2018-03-20T06:00:02.565Z,99.99
2018-03-20T06:01:02.532Z,99.99
2018-03-20T06:02:02.556Z,99.99
2018-03-20T06:03:02.481Z,99.99
2018-03-20T06:04:02.456Z,99.99
2018-03-20T06:05:02.483Z,99.99
2018-03-20T06:06:02.406Z,99.99
2018-03-20T06:07:02.381Z,99.99
2018-03-20T06:08:02.369Z,99.99
2018-03-20T06:09:02.330Z,99.99
2018-03-20T06:10:02.313Z,99.99
2018-03-20T06:11:02.283Z,99.99
2018-03-20T06:12:02.258Z,99.99
2018-03-20T06:13:02.235Z,99.99
2018-03-20T06:14:02.216Z,99.99
2018-03-20T06:15:02.195Z,99.99
2018-03-20T06:16:02.166Z,99.99
2018-03-20T06:17:02.135Z,99.99
2018-03-20T06:18:02.108Z,99.99
2018-03-20T06:19:02.091Z,99.99
2018-03-20T06:20:02.060Z,99.99
2018-03-20T06:21:02.031Z,99.99
2018-03-20T06:22:02.183Z,99.99
2018-03-20T06:23:01.984Z,99.99
2018-03-20T06:24:01.964Z,99.99
2018-03-20T06:25:01.932Z,99.99
2018-03-20T06:26:01.916Z,99.99
2018-03-20T06:27:01.882Z,99.99
2018-03-20T06:28:01.857Z,99.99
2018-03-20T06:29:01.833Z,99.99
2018-03-20T06:30:01.818Z,99.99
2018-03-20T06:31:01.783Z,99.99
2018-03-20T06:32:01.762Z,99.99
2018-03-20T06:33:01.737Z,99.99
2018-03-20T06:34:01.709Z,99.99
2018-03-20T06:35:01.682Z,99.99
2018-03-20T06:36:01.658Z,99.99
2018-03-20T06:37:01.635Z,99.99
2018-03-20T06:38:01.617Z,99.99
2018-03-20T06:39:01.582Z,99.99
2018-03-20T06:40:01.561Z,99.99
2018-03-20T06:41:01.537Z,99.99
2018-03-20T06:42:01.513Z,99.99
2018-03-20T06:43:01.485Z,99.99
2018-03-20T06:44:01.459Z,99.99
2018-03-20T06:45:01.436Z,99.99
2018-03-20T06:46:01.409Z,99.99
2018-03-20T06:47:01.389Z,99.99
2018-03-20T06:48:01.365Z,99.99
2018-03-20T06:49:01.355Z,99.99
2018-03-20T06:50:01.321Z,99.99
2018-03-20T06:51:01.302Z,99.99
2018-03-20T06:52:01.271Z,99.99
2018-03-20T06:53:01.237Z,99.99
2018-03-20T06:54:01.216Z,99.99
2018-03-20T06:55:01.189Z,99.99
2018-03-20T06:56:01.166Z,99.99
2018-03-20T06:57:01.138Z,99.99
2018-03-20T06:58:01.118Z,99.99
2018-03-20T06:59:01.112Z,99.99
2018-03-20T07:00:01.104Z,99.99
2018-03-20T07:01:01.041Z,98.68
2018-03-20T07:02:01.015Z,98.96
2018-03-20T07:03:00.990Z,98.77
2018-03-20T07:04:00.966Z,98.96
2018-03-20T07:05:00.939Z,98.20
2018-03-20T07:06:00.916Z,98.49
2018-03-20T07:07:00.898Z,98.77
2018-03-20T07:08:00.865Z,98.58
2018-03-20T07:09:00.851Z,98.39
2018-03-20T07:10:00.817Z,98.49
2018-03-20T07:11:00.841Z,97.92
2018-03-20T07:12:00.768Z,98.11
2018-03-20T07:13:00.743Z,98.01
2018-03-20T07:14:00.761Z,98.39
2018-03-20T07:15:00.704Z,98.11
2018-03-20T07:16:00.671Z,97.92
2018-03-20T07:17:00.645Z,97.92
2018-03-20T07:18:00.627Z,98.01
2018-03-20T07:19:00.595Z,97.44
2018-03-20T07:20:00.572Z,97.25
2018-03-20T07:21:00.546Z,98.01
2018-03-20T07:22:00.531Z,97.44
2018-03-20T07:23:00.501Z,97.54
2018-03-20T07:24:00.474Z,97.73
2018-03-20T07:25:00.451Z,96.97
2018-03-20T07:26:00.450Z,97.35
2018-03-20T07:27:00.405Z,97.02
2018-03-20T07:28:00.377Z,95.69
2018-03-20T07:29:00.351Z,95.79
2018-03-20T07:30:00.333Z,95.88
2018-03-20T07:31:00.301Z,95.31
2018-03-20T07:32:00.278Z,95.12
2018-03-20T07:33:00.300Z,95.12
2018-03-20T07:34:00.239Z,94.37
2018-03-20T07:35:00.206Z,94.37
2018-03-20T07:36:00.183Z,93.51
2018-03-20T07:37:00.157Z,92.47
2018-03-20T07:38:00.141Z,92.28
2018-03-20T07:39:00.110Z,91.90
2018-03-20T07:40:00.092Z,91.33
2018-03-20T07:41:00.061Z,90.67
2018-03-20T07:42:00.040Z,90.91
2018-03-20T07:43:00.017Z,90.05
2018-03-20T07:43:59.989Z,89.82
2018-03-20T07:44:59.964Z,89.34
2018-03-20T07:45:59.942Z,89.48
2018-03-20T07:46:59.919Z,89.39
2018-03-20T07:47:59.907Z,88.96
2018-03-20T07:48:59.873Z,87.26
2018-03-20T07:49:59.848Z,87.68
2018-03-20T07:50:59.824Z,87.21
2018-03-20T07:51:59.799Z,86.35
2018-03-20T07:52:59.780Z,86.64
2018-03-20T07:53:59.754Z,85.50
2018-03-20T07:54:59.751Z,84.74
2018-03-20T07:55:59.709Z,83.98
2018-03-20T07:56:59.681Z,84.84
2018-03-20T07:57:59.668Z,83.98
2018-03-20T07:58:59.642Z,83.70
2018-03-20T07:59:59.612Z,83.61
2018-03-20T08:00:59.590Z,84.36
2018-03-20T08:01:59.577Z,83.98
2018-03-20T08:02:59.541Z,82.85
2018-03-20T08:03:59.530Z,83.98
2018-03-20T08:04:59.519Z,84.08
2018-03-20T08:05:59.475Z,84.08
2018-03-20T08:06:59.455Z,83.80
2018-03-20T08:07:59.431Z,83.89
2018-03-20T08:08:59.407Z,83.51
2018-03-20T08:09:59.384Z,82.66
2018-03-20T08:10:59.369Z,82.32
2018-03-20T08:11:59.340Z,80.43
2018-03-20T08:12:59.315Z,79.10
2018-03-20T08:13:59.288Z,78.00
2018-03-20T08:14:59.362Z,76.76
2018-03-20T08:15:59.248Z,76.67
2018-03-20T08:16:59.222Z,75.19
2018-03-20T08:17:59.202Z,74.43
2018-03-20T08:18:59.181Z,74.24
2018-03-20T08:19:59.174Z,73.23
2018-03-20T08:20:59.135Z,72.00
2018-03-20T08:21:59.114Z,70.95
2018-03-20T08:22:59.094Z,70.67
2018-03-20T08:23:59.069Z,70.38
2018-03-20T08:24:59.050Z,70.23
2018-03-20T08:25:59.028Z,68.52
2018-03-20T08:26:59.009Z,67.88
2018-03-20T08:27:59.082Z,68.13
2018-03-20T08:28:58.973Z,67.38
2018-03-20T08:29:58.954Z,67.38
2018-03-20T08:30:59.034Z,67.19
2018-03-20T08:31:58.914Z,67.03
2018-03-20T08:32:58.896Z,66.36
2018-03-20T08:33:58.875Z,65.51
2018-03-20T08:34:58.854Z,65.41
2018-03-20T08:35:58.835Z,64.18
2018-03-20T08:36:58.814Z,64.08
2018-03-20T08:37:58.803Z,63.60
2018-03-20T08:38:58.792Z,63.23
2018-03-20T08:39:58.763Z,63.13
2018-03-20T08:40:58.742Z,63.23
2018-03-20T08:41:58.726Z,62.49
2018-03-20T08:42:58.715Z,62.12
2018-03-20T08:43:58.692Z,60.97
2018-03-20T08:44:58.674Z,61.16
2018-03-20T08:45:58.655Z,60.78
2018-03-20T08:46:58.636Z,60.78
2018-03-20T08:47:58.630Z,60.02
2018-03-20T08:48:58.607Z,59.96
2018-03-20T08:49:58.645Z,58.81
2018-03-20T08:50:58.583Z,58.62
2018-03-20T08:51:58.566Z,57.77
2018-03-20T08:52:58.550Z,57.87
2018-03-20T08:53:58.531Z,56.82
2018-03-20T08:54:58.520Z,57.01
2018-03-20T08:55:58.501Z,57.60
2018-03-20T08:56:58.488Z,57.60
2018-03-20T08:57:58.475Z,56.56
2018-03-20T08:58:58.457Z,56.09
2018-03-20T08:59:58.442Z,55.61
2018-03-20T09:00:58.446Z,55.32
2018-03-20T09:01:58.416Z,55.16
2018-03-20T09:02:58.410Z,55.22
2018-03-20T09:03:58.389Z,55.70
2018-03-20T09:04:58.374Z,55.99
2018-03-20T09:05:58.366Z,55.04
2018-03-20T09:06:58.349Z,54.56
2018-03-20T09:07:58.342Z,55.01
2018-03-20T09:08:58.324Z,54.85
2018-03-20T09:09:58.310Z,54.75
2018-03-20T09:10:58.312Z,54.85
2018-03-20T09:11:58.284Z,55.13
2018-03-20T09:12:58.272Z,54.59
2018-03-20T09:13:58.258Z,53.70
2018-03-20T09:14:58.257Z,53.73
2018-03-20T09:15:58.243Z,53.00
2018-03-20T09:16:58.223Z,52.26
2018-03-20T09:17:58.257Z,51.21
2018-03-20T09:18:58.198Z,50.45
2018-03-20T09:19:58.187Z,49.87
2018-03-20T09:20:58.178Z,49.30
2018-03-20T09:21:58.169Z,49.47
2018-03-20T09:22:58.163Z,50.71
2018-03-20T09:23:58.165Z,49.78
2018-03-20T09:24:58.133Z,48.44
2018-03-20T09:25:58.128Z,48.63
2018-03-20T09:26:58.167Z,48.83
2018-03-20T09:27:58.101Z,48.54
2018-03-20T09:28:58.090Z,48.25
2018-03-20T09:29:58.079Z,47.49
2018-03-20T09:30:58.079Z,47.32
2018-03-20T09:31:58.067Z,47.75
2018-03-20T09:32:58.050Z,48.04
2018-03-20T09:33:58.073Z,47.58
2018-03-20T09:34:58.037Z,47.75
2018-03-20T09:35:58.026Z,47.11
2018-03-20T09:36:58.020Z,47.20
2018-03-20T09:37:58.007Z,47.30
2018-03-20T09:38:57.995Z,46.56
2018-03-20T09:39:57.994Z,46.66
2018-03-20T09:40:58.052Z,45.39
2018-03-20T09:41:57.982Z,46.47
2018-03-20T09:42:57.958Z,45.79
2018-03-20T09:43:57.957Z,45.03
2018-03-20T09:44:57.938Z,44.15
2018-03-20T09:45:57.928Z,44.74
2018-03-20T09:46:57.924Z,44.10
2018-03-20T09:47:57.927Z,43.82
2018-03-20T09:48:57.936Z,43.32
2018-03-20T09:49:57.894Z,42.93
2018-03-20T09:50:57.886Z,42.96
2018-03-20T09:51:57.877Z,41.81
2018-03-20T09:52:57.867Z,41.81
2018-03-20T09:53:57.889Z,42.48
2018-03-20T09:54:57.853Z,41.74
2018-03-20T09:55:57.845Z,40.59
2018-03-20T09:56:57.837Z,39.61
2018-03-20T09:57:57.827Z,39.69
2018-03-20T09:58:57.824Z,39.29
2018-03-20T09:59:57.811Z,40.24
2018-03-20T10:00:57.804Z,40.63
2018-03-20T10:01:57.792Z,41.39
2018-03-20T10:02:57.782Z,40.64
2018-03-20T10:03:57.785Z,39.61
2018-03-20T10:04:57.781Z,39.61
2018-03-20T10:05:57.760Z,39.54
2018-03-20T10:06:57.799Z,39.64
2018-03-20T10:07:57.741Z,39.42
2018-03-20T10:08:57.732Z,39.14
2018-03-20T10:09:57.759Z,39.50
2018-03-20T10:10:57.712Z,39.59
2018-03-20T10:11:57.706Z,38.66
2018-03-20T10:12:57.696Z,38.76
2018-03-20T10:13:57.695Z,37.51
2018-03-20T10:14:57.691Z,38.01
2018-03-20T10:15:57.674Z,37.13
2018-03-20T10:16:57.660Z,37.53
2018-03-20T10:17:57.651Z,37.63
2018-03-20T10:18:57.647Z,36.87
2018-03-20T10:19:57.632Z,36.77
2018-03-20T10:20:57.624Z,36.75
2018-03-20T10:21:57.621Z,37.13
2018-03-20T10:22:57.701Z,36.85
2018-03-20T10:23:57.600Z,36.94
2018-03-20T10:24:57.628Z,36.56
2018-03-20T10:25:57.580Z,36.18
2018-03-20T10:26:57.572Z,35.87
2018-03-20T10:27:57.563Z,35.59
2018-03-20T10:28:57.556Z,35.49
2018-03-20T10:29:57.543Z,35.59
2018-03-20T10:30:57.542Z,36.08
2018-03-20T10:31:57.531Z,35.72
2018-03-20T10:32:57.521Z,35.13
2018-03-20T10:33:57.526Z,35.02
2018-03-20T10:34:57.502Z,35.68
2018-03-20T10:35:57.496Z,35.99
2018-03-20T10:36:57.483Z,35.62
2018-03-20T10:37:57.473Z,34.94
2018-03-20T10:38:57.474Z,34.84
2018-03-20T10:39:57.456Z,34.46
2018-03-20T10:40:57.453Z,34.46
2018-03-20T10:41:57.444Z,33.78
2018-03-20T10:42:57.431Z,34.34
2018-03-20T10:43:57.428Z,34.34
2018-03-20T10:44:57.418Z,35.03
2018-03-20T10:45:57.422Z,33.78
2018-03-20T10:46:57.391Z,33.87
2018-03-20T10:47:57.388Z,34.44
2018-03-20T10:48:57.413Z,33.79
2018-03-20T10:49:57.370Z,33.22
2018-03-20T10:50:57.359Z,33.79
2018-03-20T10:51:57.362Z,33.50
2018-03-20T10:52:57.340Z,33.31
2018-03-20T10:53:57.374Z,33.03
2018-03-20T10:54:57.321Z,32.07
2018-03-20T10:55:57.312Z,32.95
2018-03-20T10:56:57.314Z,33.14
2018-03-20T10:57:57.297Z,32.95
2018-03-20T10:58:57.294Z,32.95
2018-03-20T10:59:57.279Z,32.65
2018-03-20T11:00:57.272Z,32.65
2018-03-20T11:01:57.259Z,31.77
2018-03-20T11:02:57.256Z,32.34
2018-03-20T11:03:57.245Z,31.31
2018-03-20T11:04:57.235Z,31.39
2018-03-20T11:05:57.229Z,31.68
2018-03-20T11:06:57.218Z,31.79
2018-03-20T11:07:57.205Z,31.12
2018-03-20T11:08:57.196Z,31.02
2018-03-20T11:09:57.189Z,31.69
2018-03-20T11:10:57.180Z,30.53
2018-03-20T11:11:57.174Z,32.15
2018-03-20T11:12:57.266Z,32.06
2018-03-20T11:13:57.155Z,32.07
2018-03-20T11:14:57.169Z,30.91
2018-03-20T11:15:57.138Z,31.31
2018-03-20T11:16:57.124Z,31.40
2018-03-20T11:17:57.123Z,31.69
2018-03-20T11:18:57.108Z,32.18
2018-03-20T11:19:57.098Z,31.99
2018-03-20T11:20:57.088Z,31.80
2018-03-20T11:21:57.086Z,31.60
2018-03-20T11:22:57.070Z,31.87
2018-03-20T11:23:57.063Z,32.06
2018-03-20T11:24:57.051Z,32.65
2018-03-20T11:25:57.042Z,31.40
2018-03-20T11:26:57.032Z,30.74
2018-03-20T11:27:57.025Z,30.53
2018-03-20T11:28:57.028Z,30.63
2018-03-20T11:29:57.042Z,30.93
2018-03-20T11:30:56.994Z,30.55
2018-03-20T11:31:56.986Z,30.35
2018-03-20T11:32:56.981Z,30.35
2018-03-20T11:33:57.112Z,30.35
2018-03-20T11:34:56.971Z,29.78
2018-03-20T11:35:56.964Z,29.38
2018-03-20T11:36:57.042Z,29.85
2018-03-20T11:37:56.935Z,30.61
2018-03-20T11:38:56.928Z,30.52
2018-03-20T11:39:56.920Z,30.72
2018-03-20T11:40:56.903Z,30.05
2018-03-20T11:41:56.893Z,29.86
2018-03-20T11:42:56.882Z,29.29
2018-03-20T11:43:56.905Z,29.77
2018-03-20T11:44:56.864Z,28.80
2018-03-20T11:45:56.852Z,28.80
2018-03-20T11:46:56.858Z,28.49
2018-03-20T11:47:56.835Z,30.31
2018-03-20T11:48:56.822Z,29.93
2018-03-20T11:49:56.837Z,29.75
2018-03-20T11:50:56.800Z,29.85
2018-03-20T11:51:56.792Z,29.07
2018-03-20T11:52:56.779Z,29.64
2018-03-20T11:53:56.768Z,29.45
2018-03-20T11:54:56.764Z,28.97
2018-03-20T11:55:56.756Z,29.55
2018-03-20T11:56:56.733Z,29.66
2018-03-20T11:57:56.720Z,28.78
2018-03-20T11:58:56.709Z,28.99
2018-03-20T11:59:56.699Z,28.99
2018-03-20T12:00:56.695Z,27.73
2018-03-20T12:01:56.680Z,28.02
2018-03-20T12:02:56.722Z,28.70
2018-03-20T12:03:56.652Z,28.99
2018-03-20T12:04:56.640Z,28.80
2018-03-20T12:05:56.729Z,28.61
2018-03-20T12:06:56.609Z,27.73
2018-03-20T12:07:56.596Z,29.07
2018-03-20T12:08:56.581Z,29.93
2018-03-20T12:09:56.567Z,30.31
2018-03-20T12:10:56.561Z,30.31
2018-03-20T12:11:56.545Z,29.63
2018-03-20T12:12:56.526Z,30.60
2018-03-20T12:13:56.511Z,29.83
2018-03-20T12:14:56.511Z,30.40
2018-03-20T12:15:56.486Z,30.31
2018-03-20T12:16:56.474Z,29.74
2018-03-20T12:17:56.462Z,29.55
2018-03-20T12:18:56.436Z,30.20
2018-03-20T12:19:56.423Z,30.60
2018-03-20T12:20:56.409Z,30.98
2018-03-20T12:21:56.389Z,30.40
2018-03-20T12:22:56.390Z,30.40
2018-03-20T12:23:56.398Z,30.12
2018-03-20T12:24:56.345Z,30.02
2018-03-20T12:25:56.326Z,30.60
2018-03-20T12:26:56.341Z,30.29
2018-03-20T12:27:56.295Z,30.18
2018-03-20T12:28:56.274Z,30.55
2018-03-20T12:29:56.261Z,31.69
2018-03-20T12:30:56.242Z,31.88
2018-03-20T12:31:56.354Z,32.26
2018-03-20T12:32:56.207Z,33.22
2018-03-20T12:33:56.191Z,33.29
2018-03-20T12:34:56.174Z,33.29
2018-03-20T12:35:56.157Z,33.78
2018-03-20T12:36:56.133Z,33.03
2018-03-20T12:37:56.115Z,32.64
2018-03-20T12:38:56.096Z,32.83
2018-03-20T12:39:56.078Z,33.22
2018-03-20T12:40:56.064Z,33.69
2018-03-20T12:41:56.051Z,33.97
2018-03-20T12:42:56.027Z,34.45
2018-03-20T12:43:56.006Z,35.60
2018-03-20T12:44:55.985Z,36.26
2018-03-20T12:45:55.972Z,36.26
2018-03-20T12:46:55.956Z,36.64
2018-03-20T12:47:55.934Z,36.45
2018-03-20T12:48:56.000Z,36.55
2018-03-20T12:49:55.892Z,36.35
2018-03-20T12:50:55.871Z,36.55
2018-03-20T12:51:55.907Z,36.74
2018-03-20T12:52:55.850Z,37.02
2018-03-20T12:53:55.817Z,36.55